Terminal Aerodrome Forecast
Issued by NWS Topeka, KS

Home | Current Version | Previous Version | Graphics & Text | Print | Product List | Glossary On
Versions: 1 2 3 4 5 6 7 8 9 10 11 12 13 14 15 16 17 18
000
FTUS43 KTOP 250530
TAFTOP
TAF
KTOP 250530Z 2506/2606 13009KT 6SM TSRA SCT025 BKN040CB
     FM250900 20009KT 5SM BR VCTS BKN035CB
     FM251400 33007KT P6SM SCT015 BKN050=

USA.gov is the U.S. government's official web portal to all federal, state and local government web resources and services.